Marsland, Nebraska
Current Conditions -  °F | °C
As of 4:53 PM on Monday 20 Oct 2014 (Local Time) from KCDR Reporting Station
Clear Clear  
Wind Chill: 78°   Ceiling: Unl
Heat Index: 78°   Visibility: 10mi
Dew Point: 43°   Wind: 17mph
Humidity: 29%   Direction: 190°S
Pressure: 29.93"   Gusts: NA
Location:  42.44°N, 103.3°W
Report Text: KCDR 202253Z AUTO 19015KT 10SM CLR 26/06 A2993 RMK AO2 SLP132 T02560061
Loading
Personal Weather Stations






























Interactive Weather Map
Tropical Storm Tracking
New forecast layout! Learn more

10-Day Weather Forecast

Advertisements
Track Severe Weather on mobile